sensor_id;sensor_type;location;lat;lon;timestamp;pressure;altitude;pressure_sealevel;temperature;humidity
35577;BME280;21680;52.400;16.920;2023-09-12T00:00:49;100403.72;;;19.23;65.09
35577;BME280;21680;52.400;16.920;2023-09-12T00:03:19;100403.66;;;19.19;64.94
35577;BME280;21680;52.400;16.920;2023-09-12T00:05:51;100397.70;;;19.17;65.27
35577;BME280;21680;52.400;16.920;2023-09-12T00:08:16;100397.52;;;19.15;65.44
35577;BME280;21680;52.400;16.920;2023-09-12T00:10:41;100392.20;;;19.13;65.43
35577;BME280;21680;52.400;16.920;2023-09-12T00:13:06;100394.17;;;19.16;65.58
35577;BME280;21680;52.400;16.920;2023-09-12T00:15:32;100396.37;;;19.18;65.50
35577;BME280;21680;52.400;16.920;2023-09-12T00:17:57;100394.35;;;19.18;65.45
35577;BME280;21680;52.400;16.920;2023-09-12T00:20:22;100388.94;;;19.18;65.59
35577;BME280;21680;52.400;16.920;2023-09-12T00:22:47;100389.42;;;19.18;65.66
35577;BME280;21680;52.400;16.920;2023-09-12T00:25:13;100391.64;;;19.20;65.70
35577;BME280;21680;52.400;16.920;2023-09-12T00:27:38;100391.77;;;19.21;65.60
35577;BME280;21680;52.400;16.920;2023-09-12T00:30:04;100395.83;;;19.18;65.56
35577;BME280;21680;52.400;16.920;2023-09-12T00:32:29;100396.88;;;19.16;65.66
35577;BME280;21680;52.400;16.920;2023-09-12T00:34:55;100393.79;;;19.16;65.76
35577;BME280;21680;52.400;16.920;2023-09-12T00:37:20;100395.68;;;19.15;65.76
35577;BME280;21680;52.400;16.920;2023-09-12T00:39:45;100396.18;;;19.13;65.73
35577;BME280;21680;52.400;16.920;2023-09-12T00:42:12;100400.19;;;19.11;65.72
35577;BME280;21680;52.400;16.920;2023-09-12T00:44:37;100393.28;;;19.07;65.95
35577;BME280;21680;52.400;16.920;2023-09-12T00:47:03;100394.38;;;19.04;65.94
35577;BME280;21680;52.400;16.920;2023-09-12T00:49:29;100395.57;;;19.01;66.04
35577;BME280;21680;52.400;16.920;2023-09-12T00:51:56;100396.90;;;18.98;66.13
35577;BME280;21680;52.400;16.920;2023-09-12T00:54:21;100394.98;;;18.95;66.23
35577;BME280;21680;52.400;16.920;2023-09-12T00:56:47;100400.40;;;18.93;66.23
35577;BME280;21680;52.400;16.920;2023-09-12T00:59:14;100399.61;;;18.92;66.19
35577;BME280;21680;52.400;16.920;2023-09-12T01:01:40;100397.79;;;18.87;66.33
35577;BME280;21680;52.400;16.920;2023-09-12T01:04:06;100397.23;;;18.83;66.31
35577;BME280;21680;52.400;16.920;2023-09-12T01:06:33;100399.23;;;18.78;66.53
35577;BME280;21680;52.400;16.920;2023-09-12T01:09:00;100398.27;;;18.75;66.58
35577;BME280;21680;52.400;16.920;2023-09-12T01:11:26;100397.65;;;18.71;66.72
35577;BME280;21680;52.400;16.920;2023-09-12T01:13:51;100394.64;;;18.68;66.64
35577;BME280;21680;52.400;16.920;2023-09-12T01:16:17;100395.64;;;18.65;66.89
35577;BME280;21680;52.400;16.920;2023-09-12T01:18:42;100395.75;;;18.64;67.19
35577;BME280;21680;52.400;16.920;2023-09-12T01:21:36;100398.47;;;18.64;67.44
35577;BME280;21680;52.400;16.920;2023-09-12T01:27:37;100398.50;;;18.54;67.54
35577;BME280;21680;52.400;16.920;2023-09-12T01:29:43;100398.88;;;18.49;67.80
35577;BME280;21680;52.400;16.920;2023-09-12T01:32:10;100399.32;;;18.46;67.88
35577;BME280;21680;52.400;16.920;2023-09-12T01:34:35;100395.98;;;18.45;67.87
35577;BME280;21680;52.400;16.920;2023-09-12T01:37:01;100401.52;;;18.43;68.09
35577;BME280;21680;52.400;16.920;2023-09-12T01:39:26;100395.27;;;18.42;68.08
35577;BME280;21680;52.400;16.920;2023-09-12T01:41:52;100397.40;;;18.40;68.25
35577;BME280;21680;52.400;16.920;2023-09-12T01:44:18;100400.10;;;18.38;68.22
35577;BME280;21680;52.400;16.920;2023-09-12T01:46:46;100401.23;;;18.35;68.39
35577;BME280;21680;52.400;16.920;2023-09-12T01:49:15;100404.56;;;18.35;68.74
35577;BME280;21680;52.400;16.920;2023-09-12T01:51:43;100403.65;;;18.34;68.76
35577;BME280;21680;52.400;16.920;2023-09-12T01:54:08;100403.90;;;18.34;68.68
35577;BME280;21680;52.400;16.920;2023-09-12T01:56:35;100403.77;;;18.31;68.92
35577;BME280;21680;52.400;16.920;2023-09-12T01:59:00;100404.09;;;18.27;68.97
35577;BME280;21680;52.400;16.920;2023-09-12T02:01:27;100405.59;;;18.24;69.23
35577;BME280;21680;52.400;16.920;2023-09-12T02:03:52;100401.13;;;18.21;69.24
35577;BME280;21680;52.400;16.920;2023-09-12T02:06:18;100402.42;;;18.19;69.30
35577;BME280;21680;52.400;16.920;2023-09-12T02:08:43;100400.29;;;18.16;69.33
35577;BME280;21680;52.400;16.920;2023-09-12T02:11:08;100393.57;;;18.14;69.46
35577;BME280;21680;52.400;16.920;2023-09-12T02:13:33;100397.77;;;18.11;69.59
35577;BME280;21680;52.400;16.920;2023-09-12T02:15:59;100396.55;;;18.10;69.71
35577;BME280;21680;52.400;16.920;2023-09-12T02:18:25;100394.52;;;18.09;69.75
35577;BME280;21680;52.400;16.920;2023-09-12T02:20:50;100397.55;;;18.07;69.73
35577;BME280;21680;52.400;16.920;2023-09-12T02:23:15;100395.34;;;18.05;69.78
35577;BME280;21680;52.400;16.920;2023-09-12T02:25:41;100397.08;;;18.04;69.97
35577;BME280;21680;52.400;16.920;2023-09-12T02:28:06;100399.47;;;18.03;70.00
35577;BME280;21680;52.400;16.920;2023-09-12T02:30:31;100400.58;;;18.01;70.15
35577;BME280;21680;52.400;16.920;2023-09-12T02:32:56;100398.98;;;17.98;70.18
35577;BME280;21680;52.400;16.920;2023-09-12T02:35:22;100403.79;;;17.97;70.35
35577;BME280;21680;52.400;16.920;2023-09-12T02:37:47;100398.63;;;17.94;70.34
35577;BME280;21680;52.400;16.920;2023-09-12T02:40:12;100397.73;;;17.91;70.49
35577;BME280;21680;52.400;16.920;2023-09-12T02:42:39;100394.81;;;17.87;70.44
35577;BME280;21680;52.400;16.920;2023-09-12T02:45:05;100398.33;;;17.83;70.49
35577;BME280;21680;52.400;16.920;2023-09-12T02:47:31;100402.81;;;17.81;70.65
35577;BME280;21680;52.400;16.920;2023-09-12T02:49:56;100398.73;;;17.80;70.82
35577;BME280;21680;52.400;16.920;2023-09-12T02:52:21;100400.02;;;17.78;70.71
35577;BME280;21680;52.400;16.920;2023-09-12T02:54:46;100398.70;;;17.76;70.90
35577;BME280;21680;52.400;16.920;2023-09-12T02:57:12;100399.46;;;17.75;70.96
35577;BME280;21680;52.400;16.920;2023-09-12T02:59:37;100399.39;;;17.74;71.04
35577;BME280;21680;52.400;16.920;2023-09-12T03:02:02;100398.63;;;17.72;71.23
35577;BME280;21680;52.400;16.920;2023-09-12T03:04:29;100396.15;;;17.72;71.20
35577;BME280;21680;52.400;16.920;2023-09-12T03:06:54;100398.36;;;17.69;71.34
35577;BME280;21680;52.400;16.920;2023-09-12T03:09:19;100397.64;;;17.67;71.25
35577;BME280;21680;52.400;16.920;2023-09-12T03:11:45;100398.31;;;17.64;71.50
35577;BME280;21680;52.400;16.920;2023-09-12T03:14:11;100395.52;;;17.61;71.51
35577;BME280;21680;52.400;16.920;2023-09-12T03:16:36;100394.38;;;17.59;71.65
35577;BME280;21680;52.400;16.920;2023-09-12T03:19:02;100393.08;;;17.55;71.47
35577;BME280;21680;52.400;16.920;2023-09-12T03:21:28;100397.54;;;17.51;71.60
35577;BME280;21680;52.400;16.920;2023-09-12T03:23:54;100399.05;;;17.50;71.80
35577;BME280;21680;52.400;16.920;2023-09-12T03:26:19;100395.97;;;17.48;71.76
35577;BME280;21680;52.400;16.920;2023-09-12T03:28:44;100396.02;;;17.45;71.91
35577;BME280;21680;52.400;16.920;2023-09-12T03:31:12;100393.52;;;17.44;71.97
35577;BME280;21680;52.400;16.920;2023-09-12T03:33:39;100394.63;;;17.44;71.96
35577;BME280;21680;52.400;16.920;2023-09-12T03:36:06;100396.39;;;17.42;72.12
35577;BME280;21680;52.400;16.920;2023-09-12T03:38:32;100396.16;;;17.41;72.09
35577;BME280;21680;52.400;16.920;2023-09-12T03:40:57;100398.94;;;17.40;72.41
35577;BME280;21680;52.400;16.920;2023-09-12T03:43:24;100398.70;;;17.38;72.44
35577;BME280;21680;52.400;16.920;2023-09-12T03:45:50;100397.23;;;17.38;72.37
35577;BME280;21680;52.400;16.920;2023-09-12T03:48:15;100397.97;;;17.38;72.60
35577;BME280;21680;52.400;16.920;2023-09-12T03:50:40;100400.38;;;17.37;72.65
35577;BME280;21680;52.400;16.920;2023-09-12T03:53:07;100402.38;;;17.37;72.68
35577;BME280;21680;52.400;16.920;2023-09-12T03:55:32;100403.25;;;17.35;72.79
35577;BME280;21680;52.400;16.920;2023-09-12T03:57:58;100403.68;;;17.32;72.86
35577;BME280;21680;52.400;16.920;2023-09-12T04:00:23;100400.59;;;17.30;72.85
35577;BME280;21680;52.400;16.920;2023-09-12T04:02:48;100397.13;;;17.28;72.89
35577;BME280;21680;52.400;16.920;2023-09-12T04:05:14;100395.81;;;17.26;72.95
35577;BME280;21680;52.400;16.920;2023-09-12T04:07:40;100394.46;;;17.25;73.11
35577;BME280;21680;52.400;16.920;2023-09-12T04:10:05;100390.85;;;17.23;73.12
35577;BME280;21680;52.400;16.920;2023-09-12T04:12:30;100389.73;;;17.21;73.16
35577;BME280;21680;52.400;16.920;2023-09-12T04:14:56;100387.77;;;17.20;73.45
35577;BME280;21680;52.400;16.920;2023-09-12T04:17:21;100389.70;;;17.21;73.41
35577;BME280;21680;52.400;16.920;2023-09-12T04:19:46;100390.42;;;17.21;73.26
35577;BME280;21680;52.400;16.920;2023-09-12T04:22:11;100390.19;;;17.19;73.35
35577;BME280;21680;52.400;16.920;2023-09-12T04:24:37;100390.39;;;17.19;73.52
35577;BME280;21680;52.400;16.920;2023-09-12T04:27:02;100391.88;;;17.18;73.66
35577;BME280;21680;52.400;16.920;2023-09-12T04:29:28;100388.80;;;17.16;73.70
35577;BME280;21680;52.400;16.920;2023-09-12T04:31:53;100390.36;;;17.14;73.72
35577;BME280;21680;52.400;16.920;2023-09-12T04:34:25;100389.69;;;17.14;73.88
35577;BME280;21680;52.400;16.920;2023-09-12T04:36:50;100387.27;;;17.12;73.85
35577;BME280;21680;52.400;16.920;2023-09-12T04:39:16;100389.05;;;17.10;73.86
35577;BME280;21680;52.400;16.920;2023-09-12T04:41:41;100388.77;;;17.09;73.83
35577;BME280;21680;52.400;16.920;2023-09-12T04:44:06;100394.44;;;17.11;74.05
35577;BME280;21680;52.400;16.920;2023-09-12T04:46:32;100391.84;;;17.12;74.12
35577;BME280;21680;52.400;16.920;2023-09-12T04:48:57;100391.41;;;17.15;74.18
35577;BME280;21680;52.400;16.920;2023-09-12T04:51:22;100397.39;;;17.17;74.20
35577;BME280;21680;52.400;16.920;2023-09-12T04:53:48;100397.44;;;17.16;74.12
35577;BME280;21680;52.400;16.920;2023-09-12T04:56:16;100396.80;;;17.15;74.24
35577;BME280;21680;52.400;16.920;2023-09-12T04:58:42;100396.08;;;17.15;74.11
35577;BME280;21680;52.400;16.920;2023-09-12T05:01:07;100398.05;;;17.15;74.35
35577;BME280;21680;52.400;16.920;2023-09-12T05:03:32;100396.55;;;17.16;74.21
35577;BME280;21680;52.400;16.920;2023-09-12T05:05:58;100398.67;;;17.17;74.26
35577;BME280;21680;52.400;16.920;2023-09-12T05:08:24;100399.42;;;17.19;74.38
35577;BME280;21680;52.400;16.920;2023-09-12T05:10:49;100400.76;;;17.20;74.40
35577;BME280;21680;52.400;16.920;2023-09-12T05:13:15;100399.54;;;17.22;74.61
35577;BME280;21680;52.400;16.920;2023-09-12T05:15:41;100402.28;;;17.25;74.53
35577;BME280;21680;52.400;16.920;2023-09-12T05:18:06;100402.05;;;17.27;74.65
35577;BME280;21680;52.400;16.920;2023-09-12T05:20:32;100404.31;;;17.31;74.62
35577;BME280;21680;52.400;16.920;2023-09-12T05:22:58;100405.52;;;17.34;74.64
35577;BME280;21680;52.400;16.920;2023-09-12T05:25:23;100406.02;;;17.37;74.56
35577;BME280;21680;52.400;16.920;2023-09-12T05:27:48;100406.15;;;17.40;74.73
35577;BME280;21680;52.400;16.920;2023-09-12T05:30:14;100404.30;;;17.43;74.61
35577;BME280;21680;52.400;16.920;2023-09-12T05:32:42;100407.88;;;17.46;74.72
35577;BME280;21680;52.400;16.920;2023-09-12T05:35:07;100406.34;;;17.49;74.73
35577;BME280;21680;52.400;16.920;2023-09-12T05:37:32;100407.65;;;17.54;74.59
35577;BME280;21680;52.400;16.920;2023-09-12T05:39:58;100409.55;;;17.57;74.66
35577;BME280;21680;52.400;16.920;2023-09-12T05:42:24;100405.61;;;17.61;74.56
35577;BME280;21680;52.400;16.920;2023-09-12T05:44:50;100402.31;;;17.64;74.80
35577;BME280;21680;52.400;16.920;2023-09-12T05:47:19;100409.65;;;17.70;74.83
35577;BME280;21680;52.400;16.920;2023-09-12T05:49:44;100408.68;;;17.76;74.67
35577;BME280;21680;52.400;16.920;2023-09-12T05:52:09;100405.77;;;17.80;74.92
35577;BME280;21680;52.400;16.920;2023-09-12T05:54:36;100408.23;;;17.86;74.84
35577;BME280;21680;52.400;16.920;2023-09-12T05:57:01;100405.21;;;17.92;74.71
35577;BME280;21680;52.400;16.920;2023-09-12T05:59:27;100406.16;;;17.99;74.74
35577;BME280;21680;52.400;16.920;2023-09-12T06:01:52;100409.02;;;18.06;74.57
35577;BME280;21680;52.400;16.920;2023-09-12T06:04:17;100405.98;;;18.13;74.54
35577;BME280;21680;52.400;16.920;2023-09-12T06:06:43;100411.83;;;18.19;74.38
35577;BME280;21680;52.400;16.920;2023-09-12T06:09:08;100415.92;;;18.24;74.30
35577;BME280;21680;52.400;16.920;2023-09-12T06:11:34;100418.10;;;18.28;74.34
35577;BME280;21680;52.400;16.920;2023-09-12T06:13:59;100421.79;;;18.32;74.34
35577;BME280;21680;52.400;16.920;2023-09-12T06:16:25;100423.56;;;18.37;74.16
35577;BME280;21680;52.400;16.920;2023-09-12T06:18:50;100422.46;;;18.41;74.28
35577;BME280;21680;52.400;16.920;2023-09-12T06:21:15;100418.02;;;18.47;74.00
35577;BME280;21680;52.400;16.920;2023-09-12T06:23:40;100416.05;;;18.54;73.99
35577;BME280;21680;52.400;16.920;2023-09-12T06:26:06;100420.96;;;18.61;73.93
35577;BME280;21680;52.400;16.920;2023-09-12T06:28:31;100420.43;;;18.67;73.85
35577;BME280;21680;52.400;16.920;2023-09-12T06:30:57;100419.82;;;18.73;73.88
35577;BME280;21680;52.400;16.920;2023-09-12T06:33:24;100419.13;;;18.76;73.64
35577;BME280;21680;52.400;16.920;2023-09-12T06:35:50;100417.11;;;18.81;73.58
35577;BME280;21680;52.400;16.920;2023-09-12T06:38:18;100415.98;;;18.86;73.38
35577;BME280;21680;52.400;16.920;2023-09-12T06:40:43;100417.18;;;18.94;73.38
35577;BME280;21680;52.400;16.920;2023-09-12T06:43:09;100416.91;;;18.99;73.40
35577;BME280;21680;52.400;16.920;2023-09-12T06:45:34;100419.59;;;19.06;73.19
35577;BME280;21680;52.400;16.920;2023-09-12T06:48:03;100418.80;;;19.13;73.16
35577;BME280;21680;52.400;16.920;2023-09-12T06:50:29;100423.52;;;19.23;73.12
35577;BME280;21680;52.400;16.920;2023-09-12T06:52:54;100425.55;;;19.28;72.88
35577;BME280;21680;52.400;16.920;2023-09-12T06:55:19;100424.39;;;19.36;72.87
35577;BME280;21680;52.400;16.920;2023-09-12T06:57:44;100427.35;;;19.43;72.66
35577;BME280;21680;52.400;16.920;2023-09-12T07:00:12;100430.71;;;19.51;72.63
35577;BME280;21680;52.400;16.920;2023-09-12T07:02:37;100427.48;;;19.59;72.57
35577;BME280;21680;52.400;16.920;2023-09-12T07:05:03;100427.66;;;19.68;72.32
35577;BME280;21680;52.400;16.920;2023-09-12T07:07:29;100428.40;;;19.76;72.28
35577;BME280;21680;52.400;16.920;2023-09-12T07:09:54;100428.41;;;19.85;72.10
35577;BME280;21680;52.400;16.920;2023-09-12T07:12:19;100428.23;;;19.93;72.06
35577;BME280;21680;52.400;16.920;2023-09-12T07:14:46;100426.00;;;20.02;71.94
35577;BME280;21680;52.400;16.920;2023-09-12T07:17:12;100427.73;;;20.11;71.75
35577;BME280;21680;52.400;16.920;2023-09-12T07:19:37;100427.61;;;20.19;71.71
35577;BME280;21680;52.400;16.920;2023-09-12T07:22:02;100428.60;;;20.26;71.60
35577;BME280;21680;52.400;16.920;2023-09-12T07:24:28;100426.23;;;20.34;71.50
35577;BME280;21680;52.400;16.920;2023-09-12T07:26:53;100426.07;;;20.43;71.36
35577;BME280;21680;52.400;16.920;2023-09-12T07:29:19;100425.52;;;20.52;71.29
35577;BME280;21680;52.400;16.920;2023-09-12T07:31:44;100421.91;;;20.59;71.11
35577;BME280;21680;52.400;16.920;2023-09-12T07:34:09;100420.74;;;20.68;70.99
35577;BME280;21680;52.400;16.920;2023-09-12T07:36:37;100423.83;;;20.77;70.94
35577;BME280;21680;52.400;16.920;2023-09-12T07:39:02;100421.45;;;20.84;70.68
35577;BME280;21680;52.400;16.920;2023-09-12T07:41:29;100425.05;;;20.92;70.59
35577;BME280;21680;52.400;16.920;2023-09-12T07:43:55;100425.35;;;21.01;70.47
35577;BME280;21680;52.400;16.920;2023-09-12T07:46:22;100424.83;;;21.11;70.40
35577;BME280;21680;52.400;16.920;2023-09-12T07:48:47;100421.52;;;21.22;70.18
35577;BME280;21680;52.400;16.920;2023-09-12T07:51:14;100423.36;;;21.31;69.92
35577;BME280;21680;52.400;16.920;2023-09-12T07:53:40;100421.80;;;21.38;69.80
35577;BME280;21680;52.400;16.920;2023-09-12T07:56:08;100421.48;;;21.46;69.66
35577;BME280;21680;52.400;16.920;2023-09-12T07:58:34;100424.23;;;21.53;69.44
35577;BME280;21680;52.400;16.920;2023-09-12T08:00:59;100416.71;;;21.62;69.33
35577;BME280;21680;52.400;16.920;2023-09-12T08:03:29;100415.73;;;21.70;69.08
35577;BME280;21680;52.400;16.920;2023-09-12T08:05:56;100415.93;;;21.78;68.87
35577;BME280;21680;52.400;16.920;2023-09-12T08:08:22;100417.80;;;21.85;68.78
35577;BME280;21680;52.400;16.920;2023-09-12T08:10:49;100417.91;;;21.93;68.78
35577;BME280;21680;52.400;16.920;2023-09-12T08:13:14;100421.20;;;22.01;68.54
35577;BME280;21680;52.400;16.920;2023-09-12T08:15:39;100422.21;;;22.08;68.59
35577;BME280;21680;52.400;16.920;2023-09-12T08:18:04;100422.15;;;22.14;68.38
35577;BME280;21680;52.400;16.920;2023-09-12T08:20:30;100420.64;;;22.22;68.24
35577;BME280;21680;52.400;16.920;2023-09-12T08:22:55;100420.63;;;22.30;68.03
35577;BME280;21680;52.400;16.920;2023-09-12T08:25:20;100419.45;;;22.41;67.87
35577;BME280;21680;52.400;16.920;2023-09-12T08:27:45;100418.55;;;22.50;67.79
35577;BME280;21680;52.400;16.920;2023-09-12T08:30:12;100424.56;;;22.59;67.58
35577;BME280;21680;52.400;16.920;2023-09-12T08:32:38;100421.13;;;22.66;67.57
35577;BME280;21680;52.400;16.920;2023-09-12T08:35:08;100423.25;;;22.74;67.50
35577;BME280;21680;52.400;16.920;2023-09-12T08:37:34;100424.83;;;22.83;67.41
35577;BME280;21680;52.400;16.920;2023-09-12T08:39:59;100423.77;;;22.91;67.23
35577;BME280;21680;52.400;16.920;2023-09-12T08:42:26;100426.06;;;23.01;67.09
35577;BME280;21680;52.400;16.920;2023-09-12T08:44:54;100421.56;;;23.10;66.69
35577;BME280;21680;52.400;16.920;2023-09-12T08:47:22;100425.62;;;23.19;66.61
35577;BME280;21680;52.400;16.920;2023-09-12T08:49:49;100422.19;;;23.25;66.63
35577;BME280;21680;52.400;16.920;2023-09-12T08:52:14;100421.66;;;23.32;66.57
35577;BME280;21680;52.400;16.920;2023-09-12T08:54:39;100419.77;;;23.39;66.26
35577;BME280;21680;52.400;16.920;2023-09-12T08:57:06;100414.94;;;23.47;66.17
35577;BME280;21680;52.400;16.920;2023-09-12T08:59:33;100419.88;;;23.55;66.18
35577;BME280;21680;52.400;16.920;2023-09-12T09:02:00;100418.77;;;23.68;65.97
35577;BME280;21680;52.400;16.920;2023-09-12T09:04:28;100420.94;;;23.79;65.85
35577;BME280;21680;52.400;16.920;2023-09-12T09:06:57;100419.38;;;23.89;65.63
35577;BME280;21680;52.400;16.920;2023-09-12T09:09:23;100419.34;;;23.96;65.37
35577;BME280;21680;52.400;16.920;2023-09-12T09:11:49;100418.36;;;24.06;65.27
35577;BME280;21680;52.400;16.920;2023-09-12T09:14:15;100420.19;;;24.14;65.06
35577;BME280;21680;52.400;16.920;2023-09-12T09:16:40;100422.71;;;24.22;64.82
35577;BME280;21680;52.400;16.920;2023-09-12T09:19:06;100418.68;;;24.29;64.52
35577;BME280;21680;52.400;16.920;2023-09-12T09:21:36;100417.88;;;24.40;64.46
35577;BME280;21680;52.400;16.920;2023-09-12T09:24:09;100416.15;;;24.50;64.13
35577;BME280;21680;52.400;16.920;2023-09-12T09:26:51;100412.85;;;24.58;63.92
35577;BME280;21680;52.400;16.920;2023-09-12T09:29:19;100412.27;;;24.69;63.58
35577;BME280;21680;52.400;16.920;2023-09-12T09:31:47;100413.15;;;24.76;63.48
35577;BME280;21680;52.400;16.920;2023-09-12T09:34:14;100411.92;;;24.82;63.39
35577;BME280;21680;52.400;16.920;2023-09-12T09:36:41;100411.17;;;24.89;63.15
35577;BME280;21680;52.400;16.920;2023-09-12T09:39:08;100410.15;;;24.96;63.05
35577;BME280;21680;52.400;16.920;2023-09-12T09:41:33;100414.55;;;25.04;62.62
35577;BME280;21680;52.400;16.920;2023-09-12T09:43:59;100415.17;;;25.12;62.49
35577;BME280;21680;52.400;16.920;2023-09-12T09:46:25;100414.04;;;25.22;62.25
35577;BME280;21680;52.400;16.920;2023-09-12T09:48:51;100407.61;;;25.31;61.95
35577;BME280;21680;52.400;16.920;2023-09-12T09:51:17;100405.30;;;25.40;61.67
35577;BME280;21680;52.400;16.920;2023-09-12T09:53:43;100406.85;;;25.51;61.27
35577;BME280;21680;52.400;16.920;2023-09-12T09:56:14;100406.55;;;25.60;60.82
35577;BME280;21680;52.400;16.920;2023-09-12T09:58:54;100405.23;;;25.68;60.68
35577;BME280;21680;52.400;16.920;2023-09-12T10:01:26;100398.51;;;25.75;60.39
35577;BME280;21680;52.400;16.920;2023-09-12T10:03:58;100398.20;;;25.83;60.03
35577;BME280;21680;52.400;16.920;2023-09-12T10:06:23;100393.91;;;25.94;59.88
35577;BME280;21680;52.400;16.920;2023-09-12T10:08:52;100396.37;;;26.01;59.55
35577;BME280;21680;52.400;16.920;2023-09-12T10:11:22;100395.84;;;26.12;59.37
35577;BME280;21680;52.400;16.920;2023-09-12T10:13:55;100392.39;;;26.21;58.97
35577;BME280;21680;52.400;16.920;2023-09-12T10:16:23;100389.94;;;26.28;58.63
35577;BME280;21680;52.400;16.920;2023-09-12T10:18:58;100386.70;;;26.34;58.27
35577;BME280;21680;52.400;16.920;2023-09-12T10:21:29;100384.66;;;26.42;57.94
35577;BME280;21680;52.400;16.920;2023-09-12T10:23:58;100391.33;;;26.53;57.60
35577;BME280;21680;52.400;16.920;2023-09-12T10:26:26;100386.84;;;26.64;57.30
35577;BME280;21680;52.400;16.920;2023-09-12T10:28:54;100382.08;;;26.71;56.85
35577;BME280;21680;52.400;16.920;2023-09-12T10:31:21;100384.90;;;26.78;56.64
35577;BME280;21680;52.400;16.920;2023-09-12T10:33:49;100389.84;;;26.88;56.52
35577;BME280;21680;52.400;16.920;2023-09-12T10:36:17;100389.47;;;27.02;56.26
35577;BME280;21680;52.400;16.920;2023-09-12T10:38:45;100386.30;;;27.11;55.98
35577;BME280;21680;52.400;16.920;2023-09-12T10:41:12;100386.25;;;27.16;55.44
35577;BME280;21680;52.400;16.920;2023-09-12T10:43:41;100385.84;;;27.21;54.80
35577;BME280;21680;52.400;16.920;2023-09-12T10:46:08;100388.56;;;27.27;54.68
35577;BME280;21680;52.400;16.920;2023-09-12T10:48:35;100385.52;;;27.36;54.21
35577;BME280;21680;52.400;16.920;2023-09-12T10:51:01;100387.17;;;27.47;53.91
35577;BME280;21680;52.400;16.920;2023-09-12T10:53:31;100382.39;;;27.56;53.32
35577;BME280;21680;52.400;16.920;2023-09-12T10:56:16;100378.17;;;27.64;52.82
35577;BME280;21680;52.400;16.920;2023-09-12T11:01:30;100381.36;;;27.83;52.22
35577;BME280;21680;52.400;16.920;2023-09-12T11:03:55;100382.62;;;27.94;51.92
35577;BME280;21680;52.400;16.920;2023-09-12T11:06:23;100384.79;;;28.00;50.73
35577;BME280;21680;52.400;16.920;2023-09-12T11:09:16;100377.27;;;27.97;50.18
35577;BME280;21680;52.400;16.920;2023-09-12T11:11:42;100377.52;;;28.01;50.03
35577;BME280;21680;52.400;16.920;2023-09-12T11:14:08;100373.19;;;28.01;49.42
35577;BME280;21680;52.400;16.920;2023-09-12T11:16:34;100375.04;;;28.02;48.87
35577;BME280;21680;52.400;16.920;2023-09-12T11:19:16;100379.40;;;28.04;48.04
35577;BME280;21680;52.400;16.920;2023-09-12T11:21:46;100382.10;;;28.13;48.02
35577;BME280;21680;52.400;16.920;2023-09-12T11:24:13;100381.39;;;28.25;47.95
35577;BME280;21680;52.400;16.920;2023-09-12T11:26:59;100381.69;;;28.30;47.67
35577;BME280;21680;52.400;16.920;2023-09-12T11:29:38;100375.98;;;28.34;47.06
35577;BME280;21680;52.400;16.920;2023-09-12T11:32:05;100378.17;;;28.47;46.84
35577;BME280;21680;52.400;16.920;2023-09-12T11:34:37;100378.58;;;28.64;46.27
35577;BME280;21680;52.400;16.920;2023-09-12T11:37:04;100380.08;;;28.68;45.57
35577;BME280;21680;52.400;16.920;2023-09-12T11:39:32;100377.38;;;28.72;45.64
35577;BME280;21680;52.400;16.920;2023-09-12T11:42:00;100376.12;;;28.87;45.45
35577;BME280;21680;52.400;16.920;2023-09-12T11:44:26;100374.52;;;29.01;45.22
35577;BME280;21680;52.400;16.920;2023-09-12T11:46:53;100372.64;;;29.13;45.02
35577;BME280;21680;52.400;16.920;2023-09-12T11:49:19;100370.48;;;29.23;44.84
35577;BME280;21680;52.400;16.920;2023-09-12T11:51:49;100368.84;;;29.25;43.98
35577;BME280;21680;52.400;16.920;2023-09-12T11:54:17;100372.30;;;29.26;43.41
35577;BME280;21680;52.400;16.920;2023-09-12T11:56:43;100376.20;;;29.23;42.61
35577;BME280;21680;52.400;16.920;2023-09-12T11:59:09;100374.51;;;29.23;42.55
35577;BME280;21680;52.400;16.920;2023-09-12T12:01:34;100376.37;;;29.36;42.80
35577;BME280;21680;52.400;16.920;2023-09-12T12:03:59;100372.46;;;29.54;43.05
35577;BME280;21680;52.400;16.920;2023-09-12T12:06:25;100369.00;;;29.67;43.00
35577;BME280;21680;52.400;16.920;2023-09-12T12:08:51;100367.66;;;29.82;42.71
35577;BME280;21680;52.400;16.920;2023-09-12T12:11:19;100378.04;;;29.83;42.54
35577;BME280;21680;52.400;16.920;2023-09-12T12:17:08;100373.68;;;30.06;42.03
35577;BME280;21680;52.400;16.920;2023-09-12T12:19:34;100373.12;;;30.24;41.98
35577;BME280;21680;52.400;16.920;2023-09-12T12:22:02;100374.46;;;30.39;41.40
35577;BME280;21680;52.400;16.920;2023-09-12T12:24:36;100372.40;;;30.25;40.50
35577;BME280;21680;52.400;16.920;2023-09-12T12:27:03;100371.31;;;30.11;40.53
35577;BME280;21680;52.400;16.920;2023-09-12T12:29:28;100371.94;;;30.26;40.78
35577;BME280;21680;52.400;16.920;2023-09-12T12:31:53;100371.61;;;30.40;40.62
35577;BME280;21680;52.400;16.920;2023-09-12T12:34:24;100370.98;;;30.46;40.66
35577;BME280;21680;52.400;16.920;2023-09-12T12:36:49;100364.15;;;30.47;40.62
35577;BME280;21680;52.400;16.920;2023-09-12T12:39:15;100359.13;;;30.54;40.77
35577;BME280;21680;52.400;16.920;2023-09-12T12:41:41;100357.21;;;30.72;40.49
35577;BME280;21680;52.400;16.920;2023-09-12T12:44:07;100356.17;;;30.92;40.38
35577;BME280;21680;52.400;16.920;2023-09-12T12:46:32;100353.83;;;30.99;40.22